| time (UTC) | temp F | wind direction | speed MPH | gust MPH | rain 1hr in | rain 24hr in | rain mn in | humidity % | barometer mb |
| 20260508021041 | 75 | 153 | 0.0 | 0.0 | 0.00 | 0.33 | 0.33 | 100 | 1013.3 |
| 20260508020125 | 75 | 153 | 0.0 | 0.0 | 0.00 | 0.33 | 0.33 | 100 | 1013.3 |
| 20260508015049 | 75 | 153 | 0.0 | 0.0 | 0.00 | 0.33 | 0.33 | 100 | 1013.3 |
| 20260508014103 | 75 | 153 | 0.0 | 0.0 | 0.00 | 0.33 | 0.33 | 100 | 1013.4 |
| 20260508013055 | 75 | 153 | 0.0 | 0.0 | 0.00 | 0.33 | 0.33 | 100 | 1013.2 |
| 20260508012047 | 75 | 153 | 0.0 | 0.0 | 0.00 | 0.33 | 0.33 | 100 | 1013.1 |
| 20260508011040 | 75 | 153 | 0.0 | 0.0 | 0.00 | 0.33 | 0.33 | 100 | 1013.1 |
| 20260508010122 | 75 | 153 | 0.0 | 0.0 | 0.00 | 0.33 | 0.33 | 100 | 1012.9 |
| 20260508005044 | 75 | 153 | 0.0 | 0.0 | 0.00 | 0.33 | 0.33 | 100 | 1012.9 |
| 20260508004102 | 75 | 153 | 0.0 | 0.0 | 0.00 | 0.33 | 0.33 | 100 | 1012.9 |
| 20260508003114 | 75 | 153 | 0.0 | 0.0 | 0.00 | 0.33 | 0.33 | 100 | 1012.8 |
| 20260508002045 | 76 | 153 | 0.0 | 0.0 | 0.00 | 0.33 | 0.33 | 100 | 1012.7 |
| 20260508001038 | 76 | 153 | 0.0 | 0.0 | 0.00 | 0.33 | 0.33 | 100 | 1012.7 |
| 20260508000142 | 76 | 153 | 0.0 | 0.0 | 0.00 | 0.33 | 0.33 | 100 | 1012.6 |
| 20260507235046 | 77 | 153 | 0.0 | 0.0 | 0.00 | 0.33 | 0.33 | 100 | 1012.7 |
| 20260507234040 | 77 | 153 | 0.0 | 0.0 | 0.00 | 0.33 | 0.33 | 100 | 1012.7 |
| 20260507233053 | 77 | 153 | 0.0 | 0.0 | 0.00 | 0.33 | 0.33 | 100 | 1012.6 |
| 20260507232046 | 77 | 153 | 0.0 | 0.0 | 0.00 | 0.33 | 0.33 | 100 | 1012.5 |
| 20260507231040 | 77 | 153 | 0.0 | 0.0 | 0.00 | 0.33 | 0.33 | 100 | 1012.6 |
| 20260507230108 | 76 | 153 | 0.0 | 0.0 | 0.00 | 0.33 | 0.33 | 100 | 1012.3 |
| 20260507225111 | 76 | 153 | 0.0 | 0.0 | 0.00 | 0.33 | 0.33 | 100 | 1012.3 |
| 20260507224046 | 76 | 153 | 0.0 | 0.0 | 0.00 | 0.33 | 0.33 | 100 | 1012.6 |
| 20260507223040 | 76 | 153 | 0.0 | 0.0 | 0.00 | 0.33 | 0.33 | 100 | 1012.5 |
| 20260507222115 | 76 | 153 | 0.0 | 0.0 | 0.00 | 0.33 | 0.33 | 100 | 1013.0 |
| 20260507221047 | 76 | 153 | 0.0 | 0.0 | 0.00 | 0.33 | 0.33 | 100 | 1012.7 |
| 20260507220111 | 76 | 153 | 0.0 | 0.0 | 0.00 | 0.33 | 0.33 | 100 | 1012.9 |
| 20260507215053 | 76 | 153 | 0.0 | 0.0 | 0.00 | 0.33 | 0.33 | 100 | 1012.5 |
| 20260507214044 | 76 | 153 | 0.0 | 0.0 | 0.00 | 0.33 | 0.33 | 100 | 1012.6 |
| 20260507213117 | 76 | 153 | 0.0 | 0.0 | 0.00 | 0.33 | 0.33 | 100 | 1012.5 |
| 20260507212107 | 76 | 153 | 0.0 | 0.0 | 0.00 | 0.33 | 0.33 | 100 | 1012.6 |
| 20260507211044 | 76 | 153 | 0.0 | 0.0 | 0.00 | 0.33 | 0.33 | 100 | 1012.7 |
| 20260507210108 | 76 | 153 | 0.0 | 0.0 | 0.00 | 0.33 | 0.33 | 100 | 1012.8 |
| 20260507205050 | 76 | 153 | 0.0 | 0.0 | 0.00 | 0.33 | 0.33 | 100 | 1012.6 |
| 20260507204102 | 76 | 153 | 0.0 | 0.0 | 0.00 | 0.33 | 0.33 | 100 | 1012.9 |
| 20260507203056 | 75 | 158 | 0.0 | 1.0 | 0.01 | 0.33 | 0.33 | 100 | 1013.0 |
| 20260507202107 | 75 | 157 | 0.0 | 0.0 | 0.01 | 0.33 | 0.33 | 100 | 1013.1 |
| 20260507201100 | 74 | 157 | 0.0 | 0.0 | 0.01 | 0.33 | 0.33 | 100 | 1013.4 |
| 20260507200122 | 73 | 157 | 0.0 | 1.0 | 0.01 | 0.33 | 0.33 | 100 | 1013.5 |
| 20260507195046 | 73 | 157 | 0.0 | 2.0 | 0.01 | 0.33 | 0.33 | 100 | 1013.3 |
| 20260507194038 | 73 | 157 | 0.0 | 1.0 | 0.01 | 0.32 | 0.32 | 100 | 1013.5 |
| 20260507193051 | 73 | 157 | 0.0 | 1.0 | 0.01 | 0.32 | 0.32 | 100 | 1013.7 |
| 20260507192047 | 72 | 157 | 0.0 | 1.0 | 0.01 | 0.32 | 0.32 | 100 | 1013.7 |
| 20260507191039 | 72 | 157 | 0.0 | 1.0 | 0.01 | 0.32 | 0.32 | 100 | 1014.4 |
| 20260507190121 | 72 | 157 | 0.0 | 1.0 | 0.01 | 0.32 | 0.32 | 100 | 1014.2 |
| 20260507185045 | 72 | 157 | 0.0 | 0.0 | 0.01 | 0.32 | 0.32 | 100 | 1014.5 |
| 20260507184059 | 72 | 157 | 0.0 | 1.0 | 0.02 | 0.31 | 0.31 | 100 | 1014.0 |
| 20260507183049 | 72 | 157 | 0.0 | 0.0 | 0.30 | 0.31 | 0.31 | 100 | 1014.3 |
| 20260507182044 | 72 | 157 | 0.0 | 0.0 | 0.31 | 0.31 | 0.31 | 100 | 1014.5 |
| 20260507181117 | 72 | 157 | 0.0 | 0.0 | 0.31 | 0.31 | 0.31 | 100 | 1014.5 |
| 20260507180141 | 72 | 157 | 0.0 | 0.0 | 0.31 | 0.31 | 0.31 | 99 | 1014.8 |
| 20260507175044 | 72 | 157 | 0.0 | 2.0 | 0.31 | 0.31 | 0.31 | 98 | 1015.2 |
| 20260507174057 | 74 | 189 | 0.0 | 4.0 | 0.29 | 0.29 | 0.29 | 95 | 1015.8 |
| 20260507173108 | 76 | 282 | 1.0 | 2.0 | 0.00 | 0.00 | 0.00 | 97 | 1017.2 |
| 20260507172044 | 77 | 136 | 1.0 | 2.0 | 0.00 | 0.00 | 0.00 | 96 | 1015.1 |
| 20260507171038 | 78 | 136 | 1.0 | 4.0 | 0.00 | 0.00 | 0.00 | 94 | 1015.0 |
| 20260507170123 | 78 | 153 | 0.0 | 4.0 | 0.00 | 0.00 | 0.00 | 95 | 1014.9 |
| 20260507165044 | 78 | 140 | 0.0 | 1.0 | 0.00 | 0.00 | 0.00 | 94 | 1015.0 |
| 20260507164037 | 78 | 140 | 0.0 | 1.0 | 0.00 | 0.00 | 0.00 | 95 | 1015.4 |
| 20260507163052 | 79 | 140 | 0.0 | 0.0 | 0.00 | 0.00 | 0.00 | 93 | 1015.7 |
| 20260507162044 | 79 | 140 | 0.0 | 0.0 | 0.00 | 0.00 | 0.00 | 92 | 1016.0 |
| 20260507161056 | 80 | 140 | 0.0 | 1.0 | 0.00 | 0.00 | 0.00 | 92 | 1016.1 |
| 20260507160120 | 79 | 140 | 0.0 | 2.0 | 0.00 | 0.00 | 0.00 | 90 | 1016.1 |
| 20260507155106 | 79 | 140 | 1.0 | 4.0 | 0.00 | 0.00 | 0.00 | 91 | 1015.5 |
| 20260507154039 | 78 | 166 | 0.0 | 2.0 | 0.00 | 0.00 | 0.00 | 93 | 1015.5 |
| 20260507153052 | 78 | 166 | 0.0 | 2.0 | 0.00 | 0.00 | 0.00 | 95 | 1015.4 |
| 20260507152107 | 77 | 166 | 0.0 | 1.0 | 0.00 | 0.00 | 0.00 | 96 | 1015.3 |
| 20260507151038 | 76 | 166 | 0.0 | 4.0 | 0.00 | 0.00 | 0.00 | 97 | 1015.4 |
| 20260507150121 | 76 | 214 | 0.0 | 0.0 | 0.00 | 0.00 | 0.00 | 98 | 1015.5 |
| 20260507145045 | 76 | 218 | 0.0 | 1.0 | 0.00 | 0.00 | 0.00 | 98 | 1015.7 |
| 20260507144037 | 75 | 218 | 0.0 | 1.0 | 0.00 | 0.00 | 0.00 | 99 | 1015.9 |
| 20260507143051 | 75 | 218 | 0.0 | 1.0 | 0.00 | 0.00 | 0.00 | 100 | 1015.9 |
| 20260507142048 | 75 | 143 | 0.0 | 1.0 | 0.00 | 0.00 | 0.00 | 100 | 1015.8 |
| 20260507141041 | 74 | 143 | 0.0 | 4.0 | 0.00 | 0.00 | 0.00 | 100 | 1015.3 |
| 20260507140124 | 73 | 202 | 0.0 | 1.0 | 0.00 | 0.00 | 0.00 | 100 | 1015.1 |
| 20260507135048 | 73 | 211 | 0.0 | 1.0 | 0.00 | 0.00 | 0.00 | 100 | 1015.2 |
| 20260507134042 | 72 | 239 | 0.0 | 0.0 | 0.00 | 0.00 | 0.00 | 100 | 1015.4 |
| 20260507133115 | 72 | 239 | 0.0 | 1.0 | 0.00 | 0.00 | 0.00 | 100 | 1015.3 |
| 20260507132048 | 72 | 238 | 0.0 | 1.0 | 0.00 | 0.00 | 0.00 | 100 | 1015.0 |
| 20260507131040 | 72 | 243 | 0.0 | 0.0 | 0.00 | 0.00 | 0.00 | 100 | 1015.2 |
| 20260507130126 | 71 | 243 | 0.0 | 1.0 | 0.00 | 0.00 | 0.00 | 100 | 1015.1 |
| 20260507125108 | 71 | 280 | 0.0 | 0.0 | 0.00 | 0.00 | 0.00 | 100 | 1015.1 |
| 20260507124100 | 71 | 281 | 0.0 | 0.0 | 0.00 | 0.00 | 0.00 | 100 | 1015.2 |
| 20260507123038 | 71 | 281 | 0.0 | 0.0 | 0.00 | 0.00 | 0.00 | 100 | 1015.1 |
| 20260507122052 | 70 | 281 | 0.0 | 0.0 | 0.00 | 0.00 | 0.00 | 100 | 1015.0 |
| 20260507121046 | 70 | 281 | 0.0 | 0.0 | 0.00 | 0.00 | 0.00 | 100 | 1014.8 |
| 20260507120109 | 70 | 281 | 0.0 | 0.0 | 0.00 | 0.00 | 0.00 | 100 | 1014.7 |
| 20260507115051 | 70 | 281 | 0.0 | 0.0 | 0.00 | 0.00 | 0.00 | 100 | 1014.4 |
| 20260507114044 | 70 | 281 | 0.0 | 0.0 | 0.00 | 0.00 | 0.00 | 100 | 1014.0 |
| 20260507112049 | 70 | 281 | 0.0 | 0.0 | 0.00 | 0.00 | 0.00 | 100 | 1013.7 |
| 20260507111046 | 70 | 281 | 0.0 | 0.0 | 0.00 | 0.00 | 0.00 | 100 | 1013.5 |
| 20260507110131 | 70 | 281 | 0.0 | 1.0 | 0.00 | 0.00 | 0.00 | 100 | 1013.4 |
| 20260507105053 | 70 | 281 | 0.0 | 1.0 | 0.00 | 0.00 | 0.00 | 100 | 1013.2 |
| 20260507104106 | 70 | 281 | 0.0 | 1.0 | 0.00 | 0.00 | 0.00 | 100 | 1013.1 |
| 20260507103116 | 70 | 150 | 0.0 | 0.0 | 0.00 | 0.00 | 0.00 | 100 | 1013.0 |
| 20260507102107 | 70 | 150 | 0.0 | 0.0 | 0.00 | 0.00 | 0.00 | 100 | 1013.0 |
| 20260507101038 | 70 | 150 | 0.0 | 0.0 | 0.00 | 0.00 | 0.00 | 100 | 1013.0 |
| 20260507100121 | 70 | 150 | 0.0 | 1.0 | 0.00 | 0.00 | 0.00 | 100 | 1012.7 |
| 20260507095046 | 70 | 150 | 0.0 | 1.0 | 0.00 | 0.00 | 0.00 | 100 | 1012.7 |